Riverhead, New York
Current Conditions -  °F | °C
As of 3:00 AM on Tuesday 27 Jan 2015 (Local Time) from KFOK Reporting Station
Moderate Fog Moderate Fog  
Wind Chill:   Ceiling: 400
Heat Index: 23°   Visibility: 0.25mi
Dew Point: 19°   Wind: 30mph
Humidity: 85%   Direction: 10°N
Pressure: 29.58"   Gusts: 41mph
Location:  40.94°N, 72.64°W
Report Text: KFOK 270800Z 01026G36KT 1/4SM FZFG VV004 M05/M07 A2958 RMK AO2 PK WND 01036/0800 T10501072 PWINO FZRANO $
Loading
Personal Weather Stations






























Interactive Weather Map New forecast layout! Learn more

10-Day Weather Forecast

Advertisements
Track Severe Weather on mobile